Racecast

Grace Mintz

Virginia Beach Flames (VA) · 7 · Compare head to head

Athlete rating 110.3 2026 TF season
Best race 110.9 TF
Races 56
Seasons 2 2025 — 2026

RankedNation #24586·VA #349·Team #20 ?

Rating scale ?
Speed rating — all races

Track & Field

TF speed rating

2026 TF 105.0

Virginia Beach Flames (VA) · Grade 7

Date Meet Event Result Place Rating Difficulty PR/SR Flags
2026-06-14 AAU Virginia District Qualifier - North 800m 3:09.93 2nd · 1st on team 105.3 -0.033
2026-06-14 AAU Virginia District Qualifier - North 400m 1:26.02 7th · 1st on team -0.033
2026-06-14 AAU Virginia District Qualifier - North 200m 35.35 9th · 1st on team -0.033
2026-05-30 Va Beach Flames Invite javelin 20' 9.50" -0.023
2026-05-30 Va Beach Flames Invite 400m 1:17.56 2nd · 1st on team -0.023 ★PR SR
2026-05-30 Va Beach Flames Invite 800m 3:02.15 1st · 1st on team 110.9 -0.023 ★R RSR
2026-05-24 HR Hurricanes CAT 5 Invite 800m 3:01.15 1st · 1st on team 110.2 -0.035 ★PR SR
2026-05-24 HR Hurricanes CAT 5 Invite 200m 39.08 22nd · 3rd on team -0.035
2026-05-24 HR Hurricanes CAT 5 Invite 400m 1:19.14 4th · 1st on team -0.035 PR SR
2026-05-16 2026 Technique Relays javelin 17' 0" -0.035
2026-05-16 2026 Technique Relays 400m 1:20.07 5th · 1st on team -0.035
2026-05-16 2026 Technique Relays 800m 3:01.86 1st · 1st on team 109.7 -0.035 PR SR
2026-05-09 VA "Legends" T & F Youth Invite 400m 1:20.83 4th · 1st on team -0.033
2026-05-09 VA "Legends" T & F Youth Invite 200m 35.12 7th · 1st on team -0.033 ★PR SR
2026-05-09 VA "Legends" T & F Youth Invite 100m 17.44 10th · 2nd on team -0.033 SR
2026-05-02 The DMV Track and Field Classic javelin DNS -0.021
2026-05-02 The DMV Track and Field Classic 800m 3:09.94 1st · 1st on team 106.6 -0.021
2026-05-02 The DMV Track and Field Classic 400m 1:19.7 1st · 1st on team -0.021 PR SR
2026-04-26 Virginia Pride Spring Kick-Off javelin DNS -0.029
2026-04-26 Virginia Pride Spring Kick-Off 200m 35.17 6th · 1st on team -0.029 PR SR
2026-04-26 Virginia Pride Spring Kick-Off 400m 1:21.88 4th · 1st on team -0.029
2026-03-06 AAU Indoor National Championship 400m 1:35.69 43rd · 2nd on team -0.035
2026-03-06 AAU Indoor National Championship 800m 3:22.92 13th · 2nd on team 98.7 -0.035
2026-02-28 BWSP Queens and Kings Championships 800m 3:02.35 1st · 1st on team 110.7 -0.024 PR R SR RSR
2026-02-22 3rd Annual HRH Winter Storm Classic 800m 3:10.44 1st · 1st on team 106.0 -0.024 PR R SR RSR
2026-02-22 3rd Annual HRH Winter Storm Classic 400m 1:20.54 2nd · 1st on team -0.024 PR SR
2026-01-31 BWSP Queens and Kings - Meet 3 400m 1:26 3rd · 1st on team -0.024
2026-01-31 BWSP Queens and Kings - Meet 3 800m 3:20.69 1st · 1st on team 100.6 -0.024 PR R SR RSR
2026-01-25 Virginia Beach Flames Invitational 400m 1:27.95 5th · 3rd on team -0.035
2026-01-25 Virginia Beach Flames Invitational 200m 36.75 5th · 3rd on team -0.035 SR
2026-01-25 Virginia Beach Flames Invitational 60m 17.18 22nd · 7th on team -0.035 ★PR SR
2026-01-17 BWSP Queens and Kings - Meet 2 400m 1:23.81 2nd · 1st on team -0.024 PR SR
2026-01-17 BWSP Queens and Kings - Meet 2 800m 3:41.05 2nd · 2nd on team 91.3 -0.024 PR R SR RSR

2025 TF

Virginia Beach Flames (VA) · Grade 6

Date Meet Event Result Place Rating Difficulty PR/SR Flags
2025-07-12 Cannonball Cooper Invite hammer 10.70m -0.027
2025-07-12 Cannonball Cooper Invite 50m 8.94 2nd · 1st on team -0.027 ★PR SR
2025-07-12 Cannonball Cooper Invite 100m 18.1 3rd · 1st on team -0.027
2025-07-05 F.I.A. Freedom Invitational 50m 9.38 1st · 1st on team -0.021 PR SR
2025-07-05 F.I.A. Freedom Invitational 200m 37.44 1st · 1st on team -0.021
2025-07-05 F.I.A. Freedom Invitational 100m 18.12 1st · 1st on team -0.021
2025-06-14 AAU Virginia District Qualifier (Southern) javelin DNS -0.041
2025-06-14 AAU Virginia District Qualifier (Southern) 100m 17.32 1st · 1st on team -0.041 ★PR SR
2025-06-14 AAU Virginia District Qualifier (Southern) 50m 9.99 2nd · 1st on team -0.041
2025-06-07 Darius Dixon Invite javelin 24-02 -0.030
2025-06-07 Darius Dixon Invite 100m 17.66 1st · 1st on team -0.030 PR SR
2025-06-07 Darius Dixon Invite 200m 36.01 1st · 1st on team -0.030 PR SR
2025-06-07 Darius Dixon Invite 100m 18.82 4th · 2nd on team -0.030
2025-05-31 Va Beach Flames Invite javelin 24' 7" -0.023
2025-05-31 Va Beach Flames Invite 100m 18.93 9th · 1st on team -0.023 PR SR
2025-05-31 Va Beach Flames Invite 200m 38.88 3rd · 1st on team -0.023 PR SR
2025-05-25 HR Hurricanes CAT 5 Invite javelin 20' 4" -0.035
2025-05-25 HR Hurricanes CAT 5 Invite 100m 18.96 8th · 1st on team -0.035 PR SR
2025-05-25 HR Hurricanes CAT 5 Invite 100m 19.85 12th · 2nd on team -0.035
2025-05-25 HR Hurricanes CAT 5 Invite 200m 40.31 3rd · 1st on team -0.035 PR SR
2025-05-10 Legends Invitational hosted by Eastend Lightning javelin 25-04 -0.029
2025-05-10 Legends Invitational hosted by Eastend Lightning 100m 20.22 8th · 1st on team -0.029 PR SR
2025-05-10 Legends Invitational hosted by Eastend Lightning 50m 9.62 7th · 1st on team -0.029 PR SR